sensor_id;sensor_type;location;lat;lon;timestamp;P1;P2;P0
55549;PMS7003;41397;49.972;18.944;2022-07-22T00:03:58;7;7;6
55549;PMS7003;41397;49.972;18.944;2022-07-22T00:09:14;13;13;9
55549;PMS7003;41397;49.972;18.944;2022-07-22T00:14:28;11;11;10
55549;PMS7003;41397;49.972;18.944;2022-07-22T00:19:41;9;9;8
55549;PMS7003;41397;49.972;18.944;2022-07-22T00:20:09;15;15;14
55549;PMS7003;41397;49.972;18.944;2022-07-22T00:24:55;14;14;11
55549;PMS7003;41397;49.972;18.944;2022-07-22T00:30:09;9;9;7
55549;PMS7003;41397;49.972;18.944;2022-07-22T00:35:23;7;7;7
55549;PMS7003;41397;49.972;18.944;2022-07-22T00:40:37;12;12;11
55549;PMS7003;41397;49.972;18.944;2022-07-22T00:45:51;10;10;9
55549;PMS7003;41397;49.972;18.944;2022-07-22T00:50:23;15;15;12
55549;PMS7003;41397;49.972;18.944;2022-07-22T00:51:05;15;15;14
55549;PMS7003;41397;49.972;18.944;2022-07-22T00:56:19;17;17;13
55549;PMS7003;41397;49.972;18.944;2022-07-22T01:01:34;18;18;11
55549;PMS7003;41397;49.972;18.944;2022-07-22T01:06:48;12;12;10
55549;PMS7003;41397;49.972;18.944;2022-07-22T01:12:02;16;16;14
55549;PMS7003;41397;49.972;18.944;2022-07-22T01:17:16;11;11;11
55549;PMS7003;41397;49.972;18.944;2022-07-22T01:20:38;13;13;10
55549;PMS7003;41397;49.972;18.944;2022-07-22T01:22:30;15;15;10
55549;PMS7003;41397;49.972;18.944;2022-07-22T01:27:47;11;11;10
55549;PMS7003;41397;49.972;18.944;2022-07-22T01:33:04;13;13;12
55549;PMS7003;41397;49.972;18.944;2022-07-22T01:38:21;11;11;11
55549;PMS7003;41397;49.972;18.944;2022-07-22T01:43:38;16;16;14
55549;PMS7003;41397;49.972;18.944;2022-07-22T01:48:55;17;17;15
55549;PMS7003;41397;49.972;18.944;2022-07-22T01:50:51;18;18;12
55549;PMS7003;41397;49.972;18.944;2022-07-22T01:54:09;13;13;9
55549;PMS7003;41397;49.972;18.944;2022-07-22T01:59:23;10;10;10
55549;PMS7003;41397;49.972;18.944;2022-07-22T02:04:37;12;12;11
55549;PMS7003;41397;49.972;18.944;2022-07-22T02:09:51;14;14;11
55549;PMS7003;41397;49.972;18.944;2022-07-22T02:15:05;21;21;15
55549;PMS7003;41397;49.972;18.944;2022-07-22T02:20:21;13;13;10
55549;PMS7003;41397;49.972;18.944;2022-07-22T02:21:05;18;18;16
55549;PMS7003;41397;49.972;18.944;2022-07-22T02:25:35;12;12;11
55549;PMS7003;41397;49.972;18.944;2022-07-22T02:30:49;17;17;14
55549;PMS7003;41397;49.972;18.944;2022-07-22T02:36:03;14;14;10
55549;PMS7003;41397;49.972;18.944;2022-07-22T02:41:17;14;14;14
55549;PMS7003;41397;49.972;18.944;2022-07-22T02:46:31;20;20;13
55549;PMS7003;41397;49.972;18.944;2022-07-22T02:51:19;11;11;10
55549;PMS7003;41397;49.972;18.944;2022-07-22T02:51:45;12;12;10
55549;PMS7003;41397;49.972;18.944;2022-07-22T02:56:58;12;12;11
55549;PMS7003;41397;49.972;18.944;2022-07-22T03:02:12;14;14;12
55549;PMS7003;41397;49.972;18.944;2022-07-22T03:07:27;11;11;10
55549;PMS7003;41397;49.972;18.944;2022-07-22T03:12:41;14;14;10
55549;PMS7003;41397;49.972;18.944;2022-07-22T03:17:55;17;17;14
55549;PMS7003;41397;49.972;18.944;2022-07-22T03:21:33;19;19;11
55549;PMS7003;41397;49.972;18.944;2022-07-22T03:23:09;18;18;12
55549;PMS7003;41397;49.972;18.944;2022-07-22T03:28:23;12;12;11
55549;PMS7003;41397;49.972;18.944;2022-07-22T03:33:36;10;10;10
55549;PMS7003;41397;49.972;18.944;2022-07-22T03:38:50;13;13;9
55549;PMS7003;41397;49.972;18.944;2022-07-22T03:44:04;13;13;10
55549;PMS7003;41397;49.972;18.944;2022-07-22T03:49:17;12;12;9
55549;PMS7003;41397;49.972;18.944;2022-07-22T03:51:46;13;13;11
55549;PMS7003;41397;49.972;18.944;2022-07-22T03:54:31;10;10;8
55549;PMS7003;41397;49.972;18.944;2022-07-22T03:59:45;10;10;9
55549;PMS7003;41397;49.972;18.944;2022-07-22T04:04:58;14;14;11
55549;PMS7003;41397;49.972;18.944;2022-07-22T04:10:12;13;13;12
55549;PMS7003;41397;49.972;18.944;2022-07-22T04:15:26;10;10;9
55549;PMS7003;41397;49.972;18.944;2022-07-22T04:20:40;6;6;5
55549;PMS7003;41397;49.972;18.944;2022-07-22T04:22:00;11;11;10
55549;PMS7003;41397;49.972;18.944;2022-07-22T04:25:54;15;15;9
55549;PMS7003;41397;49.972;18.944;2022-07-22T04:31:11;17;17;12
55549;PMS7003;41397;49.972;18.944;2022-07-22T04:36:28;10;10;10
55549;PMS7003;41397;49.972;18.944;2022-07-22T04:41:45;18;18;12
55549;PMS7003;41397;49.972;18.944;2022-07-22T04:47:02;12;12;9
55549;PMS7003;41397;49.972;18.944;2022-07-22T04:52:14;12;12;8
55549;PMS7003;41397;49.972;18.944;2022-07-22T04:52:27;12;12;8
55549;PMS7003;41397;49.972;18.944;2022-07-22T04:57:41;13;13;11
55549;PMS7003;41397;49.972;18.944;2022-07-22T05:02:54;18;18;16
55549;PMS7003;41397;49.972;18.944;2022-07-22T05:08:08;10;10;8
55549;PMS7003;41397;49.972;18.944;2022-07-22T05:13:22;9;9;7
55549;PMS7003;41397;49.972;18.944;2022-07-22T05:18:36;12;11;9
55549;PMS7003;41397;49.972;18.944;2022-07-22T05:22:27;11;11;10
55549;PMS7003;41397;49.972;18.944;2022-07-22T05:23:50;13;13;12
55549;PMS7003;41397;49.972;18.944;2022-07-22T05:29:03;9;9;7
55549;PMS7003;41397;49.972;18.944;2022-07-22T05:34:17;15;15;11
55549;PMS7003;41397;49.972;18.944;2022-07-22T05:39:31;12;12;12
55549;PMS7003;41397;49.972;18.944;2022-07-22T05:44:45;9;9;8
55549;PMS7003;41397;49.972;18.944;2022-07-22T05:49:58;14;14;11
55549;PMS7003;41397;49.972;18.944;2022-07-22T05:52:41;13;13;12
55549;PMS7003;41397;49.972;18.944;2022-07-22T05:55:12;6;6;6
55549;PMS7003;41397;49.972;18.944;2022-07-22T06:00:27;16;16;11
55549;PMS7003;41397;49.972;18.944;2022-07-22T06:05:41;12;12;10
55549;PMS7003;41397;49.972;18.944;2022-07-22T06:10:57;9;9;7
55549;PMS7003;41397;49.972;18.944;2022-07-22T06:16:14;19;19;14
55549;PMS7003;41397;49.972;18.944;2022-07-22T06:21:31;15;15;13
55549;PMS7003;41397;49.972;18.944;2022-07-22T06:22:55;10;10;8
55549;PMS7003;41397;49.972;18.944;2022-07-22T06:26:48;12;12;12
55549;PMS7003;41397;49.972;18.944;2022-07-22T06:49:48;9;9;9
55549;PMS7003;41397;49.972;18.944;2022-07-22T06:53:09;20;15;10
55549;PMS7003;41397;49.972;18.944;2022-07-22T06:55:02;16;16;15
55549;PMS7003;41397;49.972;18.944;2022-07-22T07:00:16;12;12;11
55549;PMS7003;41397;49.972;18.944;2022-07-22T07:05:31;11;11;10
55549;PMS7003;41397;49.972;18.944;2022-07-22T07:16:45;16;16;11
55549;PMS7003;41397;49.972;18.944;2022-07-22T07:23:23;12;12;10
55549;PMS7003;41397;49.972;18.944;2022-07-22T07:27:53;14;14;10
55549;PMS7003;41397;49.972;18.944;2022-07-22T07:33:07;18;18;14
55549;PMS7003;41397;49.972;18.944;2022-07-22T07:38:21;21;21;14
55549;PMS7003;41397;49.972;18.944;2022-07-22T07:43:35;23;23;18
55549;PMS7003;41397;49.972;18.944;2022-07-22T07:48:49;17;17;10
55549;PMS7003;41397;49.972;18.944;2022-07-22T07:53:37;19;19;13
55549;PMS7003;41397;49.972;18.944;2022-07-22T07:54:03;19;19;13
55549;PMS7003;41397;49.972;18.944;2022-07-22T07:59:17;14;14;10
55549;PMS7003;41397;49.972;18.944;2022-07-22T08:04:31;25;25;15
55549;PMS7003;41397;49.972;18.944;2022-07-22T08:09:44;11;11;10
55549;PMS7003;41397;49.972;18.944;2022-07-22T08:14:59;12;12;11
55549;PMS7003;41397;49.972;18.944;2022-07-22T08:20:12;12;12;11
55549;PMS7003;41397;49.972;18.944;2022-07-22T08:23:51;8;8;7
55549;PMS7003;41397;49.972;18.944;2022-07-22T08:25:26;10;10;10
55549;PMS7003;41397;49.972;18.944;2022-07-22T08:30:40;10;10;8
55549;PMS7003;41397;49.972;18.944;2022-07-22T08:35:54;11;11;8
55549;PMS7003;41397;49.972;18.944;2022-07-22T08:41:09;9;9;8
55549;PMS7003;41397;49.972;18.944;2022-07-22T08:46:26;11;11;9
55549;PMS7003;41397;49.972;18.944;2022-07-22T08:51:39;13;13;11
55549;PMS7003;41397;49.972;18.944;2022-07-22T08:54:05;17;17;15
55549;PMS7003;41397;49.972;18.944;2022-07-22T08:56:53;15;15;11
55549;PMS7003;41397;49.972;18.944;2022-07-22T09:02:08;21;21;15
55549;PMS7003;41397;49.972;18.944;2022-07-22T09:12:51;13;13;12
55549;PMS7003;41397;49.972;18.944;2022-07-22T09:18:08;8;8;8
55549;PMS7003;41397;49.972;18.944;2022-07-22T09:23:22;12;12;9
55549;PMS7003;41397;49.972;18.944;2022-07-22T09:28:37;20;20;18
55549;PMS7003;41397;49.972;18.944;2022-07-22T09:33:51;11;11;10
55549;PMS7003;41397;49.972;18.944;2022-07-22T09:39:23;11;11;6
55549;PMS7003;41397;49.972;18.944;2022-07-22T09:44:31;15;15;12
55549;PMS7003;41397;49.972;18.944;2022-07-22T09:49:45;13;13;12
55549;PMS7003;41397;49.972;18.944;2022-07-22T09:54:44;11;11;10
55549;PMS7003;41397;49.972;18.944;2022-07-22T09:54:59;11;11;10
55549;PMS7003;41397;49.972;18.944;2022-07-22T10:00:15;19;19;16
55549;PMS7003;41397;49.972;18.944;2022-07-22T10:05:32;12;12;11
55549;PMS7003;41397;49.972;18.944;2022-07-22T10:10:48;14;14;13
55549;PMS7003;41397;49.972;18.944;2022-07-22T10:16:03;13;13;11
55549;PMS7003;41397;49.972;18.944;2022-07-22T10:21:18;14;14;12
55549;PMS7003;41397;49.972;18.944;2022-07-22T10:25:01;12;12;12
55549;PMS7003;41397;49.972;18.944;2022-07-22T10:48:25;17;17;13
55549;PMS7003;41397;49.972;18.944;2022-07-22T10:53:45;14;14;12
55549;PMS7003;41397;49.972;18.944;2022-07-22T10:55:19;9;9;8
55549;PMS7003;41397;49.972;18.944;2022-07-22T11:04:26;12;12;10
55549;PMS7003;41397;49.972;18.944;2022-07-22T11:09:41;19;19;17
55549;PMS7003;41397;49.972;18.944;2022-07-22T11:14:55;12;12;11
55549;PMS7003;41397;49.972;18.944;2022-07-22T11:20:14;11;11;11
55549;PMS7003;41397;49.972;18.944;2022-07-22T11:25:28;17;17;14
55549;PMS7003;41397;49.972;18.944;2022-07-22T11:25:42;17;17;14
55549;PMS7003;41397;49.972;18.944;2022-07-22T11:30:42;17;17;13
55549;PMS7003;41397;49.972;18.944;2022-07-22T11:41:19;16;16;11
55549;PMS7003;41397;49.972;18.944;2022-07-22T11:46:37;15;15;11
55549;PMS7003;41397;49.972;18.944;2022-07-22T11:51:55;12;12;11
55549;PMS7003;41397;49.972;18.944;2022-07-22T11:55:57;12;12;11
55549;PMS7003;41397;49.972;18.944;2022-07-22T11:57:09;15;15;10
55549;PMS7003;41397;49.972;18.944;2022-07-22T12:02:24;18;18;7
55549;PMS7003;41397;49.972;18.944;2022-07-22T12:07:38;14;14;11
55549;PMS7003;41397;49.972;18.944;2022-07-22T12:12:51;20;20;15
55549;PMS7003;41397;49.972;18.944;2022-07-22T12:23:28;5;5;3
55549;PMS7003;41397;49.972;18.944;2022-07-22T12:26:14;9;9;9
55549;PMS7003;41397;49.972;18.944;2022-07-22T12:28:41;16;16;15
55549;PMS7003;41397;49.972;18.944;2022-07-22T12:33:55;15;15;12
55549;PMS7003;41397;49.972;18.944;2022-07-22T12:44:32;7;7;7
55549;PMS7003;41397;49.972;18.944;2022-07-22T12:49:46;10;10;9
55549;PMS7003;41397;49.972;18.944;2022-07-22T12:54:59;13;13;12
55549;PMS7003;41397;49.972;18.944;2022-07-22T12:56:27;21;21;17
55549;PMS7003;41397;49.972;18.944;2022-07-22T13:05:36;13;13;12
55549;PMS7003;41397;49.972;18.944;2022-07-22T13:10:51;18;18;15
55549;PMS7003;41397;49.972;18.944;2022-07-22T13:16:06;19;19;13
55549;PMS7003;41397;49.972;18.944;2022-07-22T13:21:20;16;16;13
55549;PMS7003;41397;49.972;18.944;2022-07-22T13:26:33;13;13;11
55549;PMS7003;41397;49.972;18.944;2022-07-22T13:26:47;13;13;11
55549;PMS7003;41397;49.972;18.944;2022-07-22T13:31:47;18;18;16
55549;PMS7003;41397;49.972;18.944;2022-07-22T13:37:02;12;12;12
55549;PMS7003;41397;49.972;18.944;2022-07-22T13:42:19;10;10;9
55549;PMS7003;41397;49.972;18.944;2022-07-22T13:47:37;10;10;9
55549;PMS7003;41397;49.972;18.944;2022-07-22T13:52:53;14;14;12
55549;PMS7003;41397;49.972;18.944;2022-07-22T13:57:01;14;14;11
55549;PMS7003;41397;49.972;18.944;2022-07-22T13:58:07;14;14;14
55549;PMS7003;41397;49.972;18.944;2022-07-22T14:03:22;19;19;15
55549;PMS7003;41397;49.972;18.944;2022-07-22T14:08:36;12;12;7
55549;PMS7003;41397;49.972;18.944;2022-07-22T14:13:50;15;15;13
55549;PMS7003;41397;49.972;18.944;2022-07-22T14:19:05;14;14;12
55549;PMS7003;41397;49.972;18.944;2022-07-22T14:24:23;13;13;12
55549;PMS7003;41397;49.972;18.944;2022-07-22T14:27:16;22;22;12
55549;PMS7003;41397;49.972;18.944;2022-07-22T14:29:40;18;18;15
55549;PMS7003;41397;49.972;18.944;2022-07-22T14:34:53;17;17;15
55549;PMS7003;41397;49.972;18.944;2022-07-22T14:40:07;12;12;11
55549;PMS7003;41397;49.972;18.944;2022-07-22T14:45:21;10;10;8
55549;PMS7003;41397;49.972;18.944;2022-07-22T14:50:35;16;16;10
55549;PMS7003;41397;49.972;18.944;2022-07-22T14:55:49;15;15;12
55549;PMS7003;41397;49.972;18.944;2022-07-22T14:57:30;15;15;12
55549;PMS7003;41397;49.972;18.944;2022-07-22T15:01:03;13;13;9
55549;PMS7003;41397;49.972;18.944;2022-07-22T15:06:17;21;21;13
55549;PMS7003;41397;49.972;18.944;2022-07-22T15:11:31;17;17;14
55549;PMS7003;41397;49.972;18.944;2022-07-22T15:16:45;16;16;14
55549;PMS7003;41397;49.972;18.944;2022-07-22T15:34:48;11;11;11
55549;PMS7003;41397;49.972;18.944;2022-07-22T15:40:07;16;16;14
55549;PMS7003;41397;49.972;18.944;2022-07-22T15:45:23;12;12;9
55549;PMS7003;41397;49.972;18.944;2022-07-22T15:50:37;9;9;6
55549;PMS7003;41397;49.972;18.944;2022-07-22T15:55:50;11;11;11
55549;PMS7003;41397;49.972;18.944;2022-07-22T15:58:48;14;14;12
55549;PMS7003;41397;49.972;18.944;2022-07-22T16:01:04;10;10;9
55549;PMS7003;41397;49.972;18.944;2022-07-22T16:06:17;20;20;18
55549;PMS7003;41397;49.972;18.944;2022-07-22T16:11:31;19;19;14
55549;PMS7003;41397;49.972;18.944;2022-07-22T16:16:45;13;13;12
55549;PMS7003;41397;49.972;18.944;2022-07-22T16:21:59;14;14;12
55549;PMS7003;41397;49.972;18.944;2022-07-22T16:27:12;19;19;15
55549;PMS7003;41397;49.972;18.944;2022-07-22T16:29:13;16;16;13
55549;PMS7003;41397;49.972;18.944;2022-07-22T16:32:26;15;15;12
55549;PMS7003;41397;49.972;18.944;2022-07-22T16:37:39;20;20;15
55549;PMS7003;41397;49.972;18.944;2022-07-22T16:42:53;17;17;12
55549;PMS7003;41397;49.972;18.944;2022-07-22T16:48:07;20;20;16
55549;PMS7003;41397;49.972;18.944;2022-07-22T16:53:21;10;10;9
55549;PMS7003;41397;49.972;18.944;2022-07-22T16:58:34;15;15;14
55549;PMS7003;41397;49.972;18.944;2022-07-22T16:59:27;10;10;8
55549;PMS7003;41397;49.972;18.944;2022-07-22T17:03:48;34;30;22
55549;PMS7003;41397;49.972;18.944;2022-07-22T17:09:02;14;14;12
55549;PMS7003;41397;49.972;18.944;2022-07-22T17:14:16;11;11;9
55549;PMS7003;41397;49.972;18.944;2022-07-22T17:19:29;12;12;10
55549;PMS7003;41397;49.972;18.944;2022-07-22T17:24:43;10;10;10
55549;PMS7003;41397;49.972;18.944;2022-07-22T17:29:40;13;13;10
55549;PMS7003;41397;49.972;18.944;2022-07-22T17:29:56;13;13;10
55549;PMS7003;41397;49.972;18.944;2022-07-22T17:35:10;15;15;13
55549;PMS7003;41397;49.972;18.944;2022-07-22T17:40:25;13;13;12
55549;PMS7003;41397;49.972;18.944;2022-07-22T17:45:38;11;11;9
55549;PMS7003;41397;49.972;18.944;2022-07-22T17:50:52;16;16;16
55549;PMS7003;41397;49.972;18.944;2022-07-22T17:56:05;19;19;10
55549;PMS7003;41397;49.972;18.944;2022-07-22T17:59:53;18;18;10
55549;PMS7003;41397;49.972;18.944;2022-07-22T18:01:19;11;11;8
55549;PMS7003;41397;49.972;18.944;2022-07-22T18:06:33;23;23;16
55549;PMS7003;41397;49.972;18.944;2022-07-22T18:11:50;14;14;12
55549;PMS7003;41397;49.972;18.944;2022-07-22T18:17:04;13;13;11
55549;PMS7003;41397;49.972;18.944;2022-07-22T18:22:17;20;20;13
55549;PMS7003;41397;49.972;18.944;2022-07-22T18:27:31;15;15;11
55549;PMS7003;41397;49.972;18.944;2022-07-22T18:30:07;16;16;13
55549;PMS7003;41397;49.972;18.944;2022-07-22T18:32:44;21;21;13
55549;PMS7003;41397;49.972;18.944;2022-07-22T18:37:58;25;25;19
55549;PMS7003;41397;49.972;18.944;2022-07-22T18:43:11;24;24;14
55549;PMS7003;41397;49.972;18.944;2022-07-22T18:48:26;20;20;15
55549;PMS7003;41397;49.972;18.944;2022-07-22T18:53:40;19;19;17
55549;PMS7003;41397;49.972;18.944;2022-07-22T18:58:53;19;19;15
55549;PMS7003;41397;49.972;18.944;2022-07-22T19:00:23;23;22;15
55549;PMS7003;41397;49.972;18.944;2022-07-22T19:04:07;13;13;12
55549;PMS7003;41397;49.972;18.944;2022-07-22T19:09:20;18;18;13
55549;PMS7003;41397;49.972;18.944;2022-07-22T19:14:34;10;10;8
55549;PMS7003;41397;49.972;18.944;2022-07-22T19:19:48;18;18;16
55549;PMS7003;41397;49.972;18.944;2022-07-22T19:25:01;28;28;23
55549;PMS7003;41397;49.972;18.944;2022-07-22T19:30:16;25;25;21
55549;PMS7003;41397;49.972;18.944;2022-07-22T19:30:36;25;25;21
55549;PMS7003;41397;49.972;18.944;2022-07-22T19:35:30;22;22;18
55549;PMS7003;41397;49.972;18.944;2022-07-22T19:40:43;13;13;11
55549;PMS7003;41397;49.972;18.944;2022-07-22T19:45:57;15;15;12
55549;PMS7003;41397;49.972;18.944;2022-07-22T19:51:10;21;21;18
55549;PMS7003;41397;49.972;18.944;2022-07-22T19:56:24;23;23;16
55549;PMS7003;41397;49.972;18.944;2022-07-22T20:00:51;22;22;18
55549;PMS7003;41397;49.972;18.944;2022-07-22T20:01:37;24;24;20
55549;PMS7003;41397;49.972;18.944;2022-07-22T20:06:51;19;19;15
55549;PMS7003;41397;49.972;18.944;2022-07-22T20:12:05;24;24;20
55549;PMS7003;41397;49.972;18.944;2022-07-22T20:17:26;28;26;19
55549;PMS7003;41397;49.972;18.944;2022-07-22T20:22:40;22;22;17
55549;PMS7003;41397;49.972;18.944;2022-07-22T20:27:54;28;27;16
55549;PMS7003;41397;49.972;18.944;2022-07-22T20:31:05;28;27;20
55549;PMS7003;41397;49.972;18.944;2022-07-22T20:33:07;23;23;19
55549;PMS7003;41397;49.972;18.944;2022-07-22T20:38:22;22;22;19
55549;PMS7003;41397;49.972;18.944;2022-07-22T20:43:35;42;34;25
55549;PMS7003;41397;49.972;18.944;2022-07-22T20:48:49;30;29;21
55549;PMS7003;41397;49.972;18.944;2022-07-22T20:54:03;31;29;23
55549;PMS7003;41397;49.972;18.944;2022-07-22T20:59:16;29;27;19
55549;PMS7003;41397;49.972;18.944;2022-07-22T21:01:19;40;35;25
55549;PMS7003;41397;49.972;18.944;2022-07-22T21:04:30;33;30;22
55549;PMS7003;41397;49.972;18.944;2022-07-22T21:09:43;37;33;24
55549;PMS7003;41397;49.972;18.944;2022-07-22T21:14:57;38;34;23
55549;PMS7003;41397;49.972;18.944;2022-07-22T21:20:14;39;34;24
55549;PMS7003;41397;49.972;18.944;2022-07-22T21:25:28;43;37;25
55549;PMS7003;41397;49.972;18.944;2022-07-22T21:30:42;44;37;24
55549;PMS7003;41397;49.972;18.944;2022-07-22T21:31:32;38;34;25
55549;PMS7003;41397;49.972;18.944;2022-07-22T21:35:55;35;32;23
55549;PMS7003;41397;49.972;18.944;2022-07-22T21:41:09;23;23;18
55549;PMS7003;41397;49.972;18.944;2022-07-22T21:46:22;31;29;21
55549;PMS7003;41397;49.972;18.944;2022-07-22T21:51:36;34;31;24
55549;PMS7003;41397;49.972;18.944;2022-07-22T21:56:49;39;34;24
55549;PMS7003;41397;49.972;18.944;2022-07-22T22:01:46;33;31;23
55549;PMS7003;41397;49.972;18.944;2022-07-22T22:02:06;22;22;16
55549;PMS7003;41397;49.972;18.944;2022-07-22T22:07:25;32;30;22
55549;PMS7003;41397;49.972;18.944;2022-07-22T22:12:39;28;27;22
55549;PMS7003;41397;49.972;18.944;2022-07-22T22:17:56;33;30;22
55549;PMS7003;41397;49.972;18.944;2022-07-22T22:24:24;38;35;26
55549;PMS7003;41397;49.972;18.944;2022-07-22T22:29:38;37;34;22
55549;PMS7003;41397;49.972;18.944;2022-07-22T22:34:51;25;25;22
55549;PMS7003;41397;49.972;18.944;2022-07-22T22:40:05;35;32;25
55549;PMS7003;41397;49.972;18.944;2022-07-22T22:45:19;41;36;28
55549;PMS7003;41397;49.972;18.944;2022-07-22T22:49:24;32;30;24
55549;PMS7003;41397;49.972;18.944;2022-07-22T22:50:33;34;32;22
55549;PMS7003;41397;49.972;18.944;2022-07-22T22:55:46;31;29;22
55549;PMS7003;41397;49.972;18.944;2022-07-22T23:01:00;40;33;23
55549;PMS7003;41397;49.972;18.944;2022-07-22T23:06:14;28;27;20
55549;PMS7003;41397;49.972;18.944;2022-07-22T23:11:27;37;33;19
55549;PMS7003;41397;49.972;18.944;2022-07-22T23:16:41;33;30;22
55549;PMS7003;41397;49.972;18.944;2022-07-22T23:19:39;25;24;19
55549;PMS7003;41397;49.972;18.944;2022-07-22T23:21:54;36;32;23
55549;PMS7003;41397;49.972;18.944;2022-07-22T23:27:08;30;29;19
55549;PMS7003;41397;49.972;18.944;2022-07-22T23:32:21;48;39;22
55549;PMS7003;41397;49.972;18.944;2022-07-22T23:37:37;33;31;19
55549;PMS7003;41397;49.972;18.944;2022-07-22T23:42:54;33;31;21
55549;PMS7003;41397;49.972;18.944;2022-07-22T23:48:08;34;31;22
55549;PMS7003;41397;49.972;18.944;2022-07-22T23:49:54;30;28;21
55549;PMS7003;41397;49.972;18.944;2022-07-22T23:53:21;23;23;20
55549;PMS7003;41397;49.972;18.944;2022-07-22T23:58:35;37;33;21
